Time;durP1;ratioP1;P1;durP2;ratioP2;P2;SDS_P1;SDS_P2;PMS_P1;PMS_P2;Temp;Humidity;BMP_temperature;BMP_pressure;BME280_temperature;BME280_humidity;BME280_pressure;Samples;Min_cycle;Max_cycle;Signal;HPM_P1;HPM_P2
2022/01/19 00:01:14;;;;;;;31.05;15.00;;;;;;;5.36;100.00;100282.34;4916482;29;20508;-84
2022/01/19 00:03:40;;;;;;;35.35;16.30;;;;;;;5.23;100.00;100288.56;4901832;29;20044;-83
2022/01/19 00:06:05;;;;;;;30.48;15.90;;;;;;;5.15;100.00;100280.59;4914516;29;20027;-87
2022/01/19 00:08:31;;;;;;;33.25;14.68;;;;;;;5.19;100.00;100284.56;4902173;29;20491;-85
2022/01/19 00:10:57;;;;;;;32.40;15.57;;;;;;;5.17;100.00;100286.47;4903293;29;20036;-83
2022/01/19 00:13:24;;;;;;;30.30;14.73;;;;;;;5.14;100.00;100268.53;4917154;29;20047;-84
2022/01/19 00:15:51;;;;;;;30.45;13.82;;;;;;;5.16;100.00;100277.03;4918561;29;20398;-84
2022/01/19 00:18:21;;;;;;;31.80;17.13;;;;;;;5.10;100.00;100272.31;4919882;29;20040;-84
2022/01/19 00:20:47;;;;;;;29.95;15.90;;;;;;;5.12;100.00;100254.81;4918887;29;20039;-85
2022/01/19 00:23:16;;;;;;;34.00;14.90;;;;;;;5.09;100.00;100255.88;4919275;29;20039;-85
2022/01/19 00:25:42;;;;;;;35.72;17.40;;;;;;;5.15;100.00;100254.56;4917918;29;20032;-84
2022/01/19 00:28:08;;;;;;;33.22;16.02;;;;;;;4.97;100.00;100236.91;4920364;29;20032;-84
2022/01/19 00:30:33;;;;;;;34.50;15.93;;;;;;;4.88;100.00;100239.47;4919036;29;20039;-85
2022/01/19 00:32:59;;;;;;;32.40;15.93;;;;;;;4.87;100.00;100246.44;4902196;29;20044;-85
2022/01/19 00:35:25;;;;;;;39.45;17.52;;;;;;;4.89;100.00;100247.13;4903158;29;20036;-84
2022/01/19 00:37:50;;;;;;;36.38;17.73;;;;;;;4.91;100.00;100254.81;4902174;29;20107;-84
2022/01/19 00:40:16;;;;;;;39.53;17.08;;;;;;;4.93;100.00;100255.50;4918387;29;20118;-84
2022/01/19 00:42:46;;;;;;;32.65;16.63;;;;;;;4.84;100.00;100246.69;4916870;29;20039;-83
2022/01/19 00:45:13;;;;;;;36.55;15.90;;;;;;;4.83;100.00;100251.09;4902617;29;20059;-83
2022/01/19 00:47:39;;;;;;;32.53;15.75;;;;;;;4.64;100.00;100240.56;4916337;29;20035;-84
2022/01/19 00:50:08;;;;;;;38.85;16.13;;;;;;;4.69;100.00;100247.00;4913820;29;20036;-84
2022/01/19 00:52:35;;;;;;;30.95;14.20;;;;;;;4.79;100.00;100244.47;4915412;29;20090;-84
2022/01/19 00:55:04;;;;;;;30.67;15.07;;;;;;;4.89;100.00;100241.91;4914777;29;20039;-84
2022/01/19 00:57:30;;;;;;;30.73;14.88;;;;;;;4.97;100.00;100223.91;4918570;29;20463;-85
2022/01/19 00:59:56;;;;;;;32.88;16.05;;;;;;;5.11;100.00;100221.91;4916252;29;20159;-84
2022/01/19 01:02:21;;;;;;;28.08;14.23;;;;;;;5.29;100.00;100222.13;4899819;29;20039;-84
2022/01/19 01:04:51;;;;;;;27.73;14.75;;;;;;;5.48;100.00;100221.38;4915964;29;20052;-83
2022/01/19 01:07:16;;;;;;;31.23;15.02;;;;;;;5.74;100.00;100200.09;4913680;29;20084;-84
2022/01/19 01:09:45;;;;;;;34.72;16.58;;;;;;;5.80;100.00;100202.13;4917110;29;20163;-84
2022/01/19 01:12:13;;;;;;;26.20;13.98;;;;;;;5.89;100.00;100195.28;4900213;29;20401;-84
2022/01/19 01:20:12;;;;;;;22.45;13.15;;;;;;;6.13;100.00;100239.25;4916497;29;20043;-83
2022/01/19 01:22:39;;;;;;;25.25;14.80;;;;;;;6.24;100.00;100240.06;4916403;29;20028;-83
2022/01/19 01:25:06;;;;;;;27.45;14.85;;;;;;;6.31;100.00;100240.34;4917934;29;20032;-86
2022/01/19 01:27:32;;;;;;;25.85;13.88;;;;;;;6.36;100.00;100251.19;4918598;29;20399;-84
2022/01/19 01:29:58;;;;;;;23.45;13.32;;;;;;;6.37;100.00;100250.22;4919074;29;20043;-86
2022/01/19 01:32:23;;;;;;;24.35;13.43;;;;;;;6.27;100.00;100211.13;4918005;29;20036;-85
2022/01/19 01:34:51;;;;;;;28.27;13.90;;;;;;;6.20;100.00;100204.81;4915643;29;20398;-82
2022/01/19 01:37:18;;;;;;;25.58;13.48;;;;;;;6.02;100.00;100194.25;4916849;29;20506;-83
2022/01/19 01:39:45;;;;;;;26.70;13.70;;;;;;;6.10;100.00;100197.81;4915854;29;20028;-83
2022/01/19 01:42:17;;;;;;;21.52;12.32;;;;;;;6.11;100.00;100162.97;4915139;29;20467;-83
2022/01/19 01:44:46;;;;;;;30.02;14.05;;;;;;;6.25;100.00;100171.31;4917015;29;20035;-83
2022/01/19 01:47:14;;;;;;;21.25;12.88;;;;;;;6.30;100.00;100161.31;4917608;29;20028;-82
2022/01/19 01:55:11;;;;;;;24.08;12.20;;;;;;;6.45;100.00;100142.63;4916359;29;20040;-83
2022/01/19 01:57:37;;;;;;;23.13;12.85;;;;;;;6.51;100.00;100147.28;4899706;29;20043;-83
2022/01/19 02:00:06;;;;;;;25.92;13.00;;;;;;;6.52;100.00;100149.75;4915522;29;20530;-83
2022/01/19 02:02:31;;;;;;;20.05;12.02;;;;;;;6.59;100.00;100160.44;4916115;29;20118;-83
2022/01/19 02:04:57;;;;;;;24.67;13.00;;;;;;;6.56;100.00;100145.06;4899218;29;20144;-83
2022/01/19 02:07:41;;;;;;;22.17;13.20;;;;;;;6.51;100.00;100127.22;4915987;29;20036;-85
2022/01/19 02:10:18;;;;;;;22.30;12.73;;;;;;;6.54;100.00;100133.97;4907888;29;20114;-83
2022/01/19 02:23:59;;;;;;;24.48;12.52;;;;;;;6.55;100.00;100102.50;4914595;29;20048;-83
2022/01/19 02:26:33;;;;;;;23.58;11.75;;;;;;;6.56;100.00;100103.34;4909876;29;20036;-84
2022/01/19 02:29:10;;;;;;;;;;;;;;;6.58;100.00;100104.00;4914175;29;20406;-83
2022/01/19 02:42:39;;;;;;;20.67;11.35;;;;;;;6.76;100.00;100066.75;4914942;29;20032;-82
2022/01/19 02:49:58;;;;;;;23.38;12.10;;;;;;;6.76;100.00;100035.44;4916779;29;20029;-83
2022/01/19 02:52:24;;;;;;;22.67;11.70;;;;;;;6.66;100.00;100033.66;4916419;29;20390;-84
2022/01/19 02:54:52;;;;;;;19.80;10.70;;;;;;;6.80;100.00;100026.34;4916019;29;20028;-84
2022/01/19 02:57:24;;;;;;;21.17;11.70;;;;;;;6.79;100.00;100012.47;4901589;29;20047;-84
2022/01/19 03:10:32;;;;;;;21.88;12.48;;;;;;;6.21;100.00;99964.00;4919532;29;20087;-84
2022/01/19 03:12:59;;;;;;;20.73;12.95;;;;;;;6.22;100.00;99960.41;4918031;29;20047;-83
2022/01/19 03:15:27;;;;;;;21.30;12.32;;;;;;;6.11;100.00;99956.22;4919357;29;20029;-84
2022/01/19 03:17:58;;;;;;;22.92;13.32;;;;;;;6.12;100.00;99952.63;4918091;29;20126;-84
2022/01/19 03:20:24;;;;;;;20.10;13.35;;;;;;;6.11;100.00;99944.00;4919317;29;20078;-85
2022/01/19 03:23:00;;;;;;;24.27;13.35;;;;;;;6.02;100.00;99924.00;4902243;29;20051;-83
2022/01/19 03:25:26;;;;;;;21.83;13.43;;;;;;;6.01;100.00;99917.16;4911548;29;20087;-85
2022/01/19 03:27:52;;;;;;;26.20;13.55;;;;;;;5.94;100.00;99897.81;4917961;29;20036;-84
2022/01/19 03:30:19;;;;;;;23.08;13.27;;;;;;;5.95;100.00;99896.84;4902355;29;20032;-84
2022/01/19 03:32:46;;;;;;;22.50;13.18;;;;;;;5.88;100.00;99895.75;4918345;29;20383;-85
2022/01/19 03:35:12;;;;;;;20.38;11.93;;;;;;;5.78;100.00;99890.56;4919093;29;20040;-84
2022/01/19 03:37:38;;;;;;;22.67;12.50;;;;;;;5.74;100.00;99905.69;4902298;29;20503;-84
2022/01/19 03:40:06;;;;;;;24.35;13.65;;;;;;;5.68;100.00;99906.25;4918063;29;20032;-85
2022/01/19 03:42:31;;;;;;;20.02;12.93;;;;;;;5.64;100.00;99890.09;4919120;29;20197;-84
2022/01/19 03:44:57;;;;;;;22.60;13.88;;;;;;;5.71;100.00;99912.00;4918254;29;20155;-84
2022/01/19 03:47:22;;;;;;;26.65;12.98;;;;;;;5.70;100.00;99914.75;4918697;29;20035;-84
2022/01/19 03:49:48;;;;;;;25.35;13.02;;;;;;;5.70;100.00;99907.75;4917892;29;20036;-84
2022/01/19 03:52:14;;;;;;;24.67;13.07;;;;;;;5.95;100.00;99907.28;4901600;29;20046;-83
2022/01/19 03:54:42;;;;;;;23.98;13.02;;;;;;;6.23;100.00;99902.94;4917470;29;20505;-86
2022/01/19 03:57:08;;;;;;;23.20;12.20;;;;;;;6.46;100.00;99892.09;4918363;29;20040;-85
2022/01/19 03:59:34;;;;;;;24.92;11.90;;;;;;;6.55;100.00;99886.00;4919552;29;20063;-85
2022/01/19 04:02:01;;;;;;;24.67;13.02;;;;;;;6.50;100.00;99874.38;4919439;29;20439;-84
2022/01/19 04:04:37;;;;;;;20.15;12.00;;;;;;;6.74;100.00;99886.03;4918416;29;20384;-85
2022/01/19 04:09:32;;;;;;;20.48;11.68;;;;;;;6.71;100.00;99874.91;4918458;29;20391;-86
2022/01/19 04:11:59;;;;;;;21.08;11.20;;;;;;;6.77;100.00;99883.13;4902730;29;20063;-85
2022/01/19 04:14:26;;;;;;;20.05;11.07;;;;;;;6.74;100.00;99891.25;4918039;29;20036;-85
2022/01/19 04:16:59;;;;;;;21.63;11.05;;;;;;;6.74;100.00;99868.56;4919515;29;20083;-85
2022/01/19 04:19:34;;;;;;;25.88;13.15;;;;;;;6.75;100.00;99877.22;4918048;29;20503;-86
2022/01/19 04:22:04;;;;;;;27.52;12.88;;;;;;;6.49;100.00;99875.34;4915972;29;20036;-85
2022/01/19 04:24:30;;;;;;;16.75;10.98;;;;;;;6.74;100.00;99886.03;4918028;29;20127;-84
2022/01/19 04:27:31;;;;;;;25.45;11.68;;;;;;;6.74;100.00;99875.59;4917240;29;20123;-84
2022/01/19 04:29:52;;;;;;;17.75;10.55;;;;;;;7.07;100.00;99881.06;4913710;29;20394;-85
2022/01/19 04:32:25;;;;;;;17.25;10.13;;;;;;;7.09;100.00;99876.56;4900940;29;20368;-85
2022/01/19 04:34:51;;;;;;;18.70;10.90;;;;;;;7.02;100.00;99878.09;4891608;29;20064;-86
2022/01/19 05:06:43;;;;;;;17.98;9.20;;;;;;;7.80;100.00;99835.50;4915758;29;20124;-85
2022/01/19 05:09:24;;;;;;;14.93;8.75;;;;;;;7.84;100.00;99826.38;4898962;29;20035;-86
2022/01/19 05:14:33;;;;;;;16.38;9.52;;;;;;;8.08;100.00;99811.78;4912005;29;20032;-85
2022/01/19 05:17:00;;;;;;;17.27;7.80;;;;;;;8.18;100.00;99811.63;4916103;29;20031;-86
2022/01/19 05:19:25;;;;;;;19.77;8.82;;;;;;;8.18;100.00;99810.81;4912308;29;20035;-84
2022/01/19 05:21:51;;;;;;;17.40;9.75;;;;;;;8.14;100.00;99799.84;4911932;29;20483;-84
2022/01/19 05:24:17;;;;;;;19.90;8.15;;;;;;;8.17;100.00;99786.47;4916054;29;20119;-85
2022/01/19 05:26:42;;;;;;;15.38;9.00;;;;;;;8.22;100.00;99778.13;4915653;29;20470;-85
2022/01/19 05:29:08;;;;;;;17.70;9.10;;;;;;;8.21;100.00;99779.94;4915723;29;20024;-84
2022/01/19 05:31:33;;;;;;;14.07;8.80;;;;;;;8.31;100.00;99789.41;4914985;29;20036;-84
2022/01/19 05:33:59;;;;;;;13.55;8.88;;;;;;;8.28;100.00;99785.34;4915675;29;20040;-85
2022/01/19 05:36:25;;;;;;;15.35;10.63;;;;;;;8.17;100.00;99777.78;4916737;29;20024;-83
2022/01/19 05:38:51;;;;;;;14.93;10.00;;;;;;;8.11;100.00;99779.25;4899766;29;20038;-85
2022/01/19 05:41:16;;;;;;;16.95;8.65;;;;;;;8.10;100.00;99761.91;4915283;29;20031;-84
2022/01/19 05:43:42;;;;;;;16.33;9.63;;;;;;;8.12;100.00;99759.97;4915998;29;20054;-84
2022/01/19 05:46:08;;;;;;;17.52;9.30;;;;;;;8.15;100.00;99741.31;4915114;29;20043;-85
2022/01/19 05:48:33;;;;;;;19.17;9.57;;;;;;;8.20;100.00;99728.59;4916395;29;20036;-84
2022/01/19 05:50:59;;;;;;;15.80;8.77;;;;;;;8.09;100.00;99729.72;4916859;29;21534;-86
2022/01/19 05:53:24;;;;;;;15.60;8.75;;;;;;;8.14;100.00;99710.94;4915603;29;20032;-84
2022/01/19 05:55:50;;;;;;;18.05;9.43;;;;;;;8.04;100.00;99708.47;4899339;29;20107;-86
2022/01/19 05:58:15;;;;;;;16.40;8.32;;;;;;;7.80;100.00;99706.63;4916562;29;20024;-85
2022/01/19 06:00:41;;;;;;;11.15;6.90;;;;;;;7.94;100.00;99697.34;4916378;29;20047;-85
2022/01/19 06:03:08;;;;;;;13.80;7.55;;;;;;;7.99;100.00;99708.13;4913085;29;20048;-86
2022/01/19 06:05:33;;;;;;;16.45;8.75;;;;;;;8.24;100.00;99701.13;4900178;29;20402;-87
2022/01/19 06:10:57;;;;;;;15.93;7.13;;;;;;;8.30;100.00;99683.97;4911518;29;20047;-86
2022/01/19 06:13:24;;;;;;;19.58;8.23;;;;;;;8.26;100.00;99698.38;4917237;29;20082;-84
2022/01/19 06:15:51;;;;;;;15.98;7.78;;;;;;;8.13;100.00;99688.38;4900024;29;20115;-84
2022/01/19 06:18:17;;;;;;;17.02;7.63;;;;;;;8.21;100.00;99683.16;4915509;29;20087;-85
2022/01/19 06:20:44;;;;;;;23.30;8.13;;;;;;;8.25;100.00;99681.03;4915323;29;20035;-84
2022/01/19 06:23:10;;;;;;;14.13;7.20;;;;;;;8.20;100.00;99691.16;4916584;29;20044;-84
2022/01/19 06:25:36;;;;;;;14.65;8.02;;;;;;;8.17;100.00;99688.88;4917427;29;20389;-85
2022/01/19 06:28:02;;;;;;;15.38;7.97;;;;;;;8.05;100.00;99681.34;4916067;29;20028;-85
2022/01/19 06:30:28;;;;;;;14.77;8.98;;;;;;;8.08;100.00;99669.75;4916673;29;20063;-84
2022/01/19 06:32:54;;;;;;;16.13;10.00;;;;;;;8.11;100.00;99667.63;4918637;29;20040;-84
2022/01/19 06:35:21;;;;;;;17.63;8.32;;;;;;;8.01;100.00;99669.56;4919784;29;20438;-84
2022/01/19 06:37:48;;;;;;;16.17;7.43;;;;;;;8.32;100.00;99668.09;4915727;29;20036;-84
2022/01/19 06:40:15;;;;;;;15.95;7.00;;;;;;;8.26;100.00;99677.44;4911967;29;20048;-85
2022/01/19 06:42:41;;;;;;;13.02;7.15;;;;;;;8.36;100.00;99667.63;4919536;29;20080;-85
2022/01/19 06:45:08;;;;;;;14.85;7.40;;;;;;;8.35;100.00;99666.00;4920319;29;20386;-86
2022/01/19 06:47:35;;;;;;;14.05;6.97;;;;;;;8.31;100.00;99669.91;4919535;29;20383;-84
2022/01/19 06:50:02;;;;;;;14.00;6.93;;;;;;;8.47;100.00;99665.66;4920866;29;20031;-85
2022/01/19 06:52:28;;;;;;;18.23;6.95;;;;;;;8.43;100.00;99671.22;4919821;29;20035;-86
2022/01/19 06:54:54;;;;;;;15.55;6.68;;;;;;;8.40;100.00;99658.47;4920099;29;20471;-85
2022/01/19 06:57:21;;;;;;;15.23;7.32;;;;;;;8.36;100.00;99665.00;4920225;29;20060;-84
2022/01/19 06:59:51;;;;;;;17.15;7.32;;;;;;;8.34;100.00;99651.28;4920396;29;20115;-85
2022/01/19 07:02:20;;;;;;;13.38;7.07;;;;;;;8.39;100.00;99667.28;4920379;29;20115;-86
2022/01/19 07:04:50;;;;;;;15.43;7.55;;;;;;;8.50;100.00;99668.78;4904590;29;20079;-84
2022/01/19 07:07:19;;;;;;;16.58;7.13;;;;;;;8.47;100.00;99653.38;4921543;29;20056;-85
2022/01/19 07:09:46;;;;;;;14.95;7.60;;;;;;;8.62;100.00;99650.94;4920869;29;20399;-84
2022/01/19 07:12:12;;;;;;;14.68;8.18;;;;;;;8.53;100.00;99654.56;4920143;29;20388;-84
2022/01/19 07:14:38;;;;;;;20.23;8.77;;;;;;;8.44;100.00;99638.81;4918910;29;20043;-86
2022/01/19 07:17:04;;;;;;;17.35;7.75;;;;;;;8.73;100.00;99647.16;4920962;29;20036;-85
2022/01/19 07:19:30;;;;;;;17.20;9.43;;;;;;;8.65;100.00;99660.28;4904354;29;20093;-85
2022/01/19 07:21:56;;;;;;;16.08;8.00;;;;;;;8.74;100.00;99658.44;4903467;29;20027;-84
2022/01/19 07:24:21;;;;;;;13.15;7.45;;;;;;;8.63;100.00;99646.53;4919337;29;20028;-84
2022/01/19 07:26:47;;;;;;;13.45;7.07;;;;;;;8.48;100.00;99655.03;4921043;29;20474;-87
2022/01/19 07:29:14;;;;;;;12.52;6.95;;;;;;;8.49;100.00;99648.81;4905258;29;20028;-86
2022/01/19 07:31:43;;;;;;;11.82;7.20;;;;;;;8.37;100.00;99661.41;4922018;29;20032;-87
2022/01/19 07:34:09;;;;;;;8.30;6.32;;;;;;;8.43;100.00;99645.03;4920745;29;20032;-87
2022/01/19 07:36:35;;;;;;;10.85;6.95;;;;;;;8.38;100.00;99649.16;4920691;29;20032;-89
2022/01/19 07:39:00;;;;;;;9.13;5.85;;;;;;;8.33;100.00;99654.88;4918342;29;20497;-85
2022/01/19 07:41:26;;;;;;;7.65;5.82;;;;;;;8.21;100.00;99653.56;4903145;29;20032;-86
2022/01/19 07:43:52;;;;;;;10.35;5.78;;;;;;;8.41;100.00;99649.63;4918889;29;20035;-88
2022/01/19 07:46:18;;;;;;;11.05;7.70;;;;;;;8.35;100.00;99632.00;4919233;29;20044;-87
2022/01/19 07:48:44;;;;;;;10.25;6.90;;;;;;;8.33;100.00;99647.03;4918876;29;20039;-84
2022/01/19 07:51:10;;;;;;;9.82;6.88;;;;;;;8.40;100.00;99644.59;4918803;29;20475;-85
2022/01/19 07:53:35;;;;;;;14.38;9.70;;;;;;;8.26;100.00;99635.59;4917025;29;20115;-84
2022/01/19 07:56:03;;;;;;;21.63;12.05;;;;;;;8.17;100.00;99642.63;4902782;29;20032;-88
2022/01/19 07:58:29;;;;;;;17.77;12.35;;;;;;;8.27;100.00;99642.47;4919053;29;20087;-87
2022/01/19 08:00:54;;;;;;;21.00;14.10;;;;;;;8.36;100.00;99635.44;4903849;29;20427;-86
2022/01/19 08:03:22;;;;;;;23.40;13.38;;;;;;;8.39;100.00;99630.66;4925030;29;20076;-85
2022/01/19 08:05:48;;;;;;;21.88;12.45;;;;;;;8.41;100.00;99649.63;4921183;29;20076;-84
2022/01/19 08:08:13;;;;;;;26.17;12.40;;;;;;;8.49;100.00;99653.25;4920421;29;20032;-85
2022/01/19 08:10:42;;;;;;;18.30;11.57;;;;;;;8.55;100.00;99642.97;4902934;29;20040;-84
2022/01/19 08:13:14;;;;;;;22.52;12.77;;;;;;;8.54;100.00;99619.56;4914990;29;20040;-86
2022/01/19 08:15:40;;;;;;;24.42;12.93;;;;;;;8.56;100.00;99633.28;4920172;29;20040;-85
2022/01/19 08:18:06;;;;;;;21.90;12.48;;;;;;;8.55;100.00;99616.78;4902849;29;20036;-85
2022/01/19 08:20:32;;;;;;;25.25;14.13;;;;;;;8.47;100.00;99631.66;4919315;29;20036;-84
2022/01/19 08:22:58;;;;;;;19.02;12.10;;;;;;;8.52;100.00;99614.47;4918785;29;20036;-83
2022/01/19 08:25:24;;;;;;;22.67;13.52;;;;;;;8.80;100.00;99632.44;4918416;29;20032;-86
2022/01/19 08:27:50;;;;;;;20.90;13.73;;;;;;;8.71;100.00;99613.31;4916794;29;20046;-85
2022/01/19 08:30:16;;;;;;;20.25;13.15;;;;;;;8.76;100.00;99625.91;4901879;29;20024;-86
2022/01/19 08:32:42;;;;;;;21.02;13.18;;;;;;;8.93;100.00;99650.22;4915442;29;20035;-86
2022/01/19 08:35:09;;;;;;;18.67;12.07;;;;;;;8.93;100.00;99652.84;4901278;29;20044;-86
2022/01/19 08:37:35;;;;;;;28.63;13.35;;;;;;;8.98;100.00;99655.75;4917207;29;20103;-86
2022/01/19 08:40:03;;;;;;;28.92;15.20;;;;;;;8.92;100.00;99661.69;4917502;29;20542;-85
2022/01/19 08:42:29;;;;;;;30.75;18.98;;;;;;;8.93;100.00;99655.47;4918279;29;20032;-83
2022/01/19 08:44:55;;;;;;;25.85;17.67;;;;;;;8.96;100.00;99655.13;4919106;29;20111;-87
2022/01/19 08:47:22;;;;;;;26.50;16.70;;;;;;;8.88;100.00;99662.19;4917412;29;20040;-85
2022/01/19 08:49:48;;;;;;;26.77;17.48;;;;;;;8.75;100.00;99665.31;4901633;29;20036;-84
2022/01/19 08:52:19;;;;;;;23.08;15.10;;;;;;;8.94;100.00;99664.94;4919349;29;20415;-86
2022/01/19 08:54:45;;;;;;;23.33;15.32;;;;;;;9.08;100.00;99686.19;4918412;29;20040;-85
2022/01/19 08:57:11;;;;;;;18.10;12.95;;;;;;;9.00;100.00;99695.69;4919140;29;20055;-85
2022/01/19 08:59:37;;;;;;;18.05;12.40;;;;;;;9.22;100.00;99703.78;4917734;29;20091;-83
2022/01/19 09:02:04;;;;;;;14.10;10.23;;;;;;;9.04;100.00;99713.69;4918374;29;20040;-86
2022/01/19 09:04:30;;;;;;;5.47;4.00;;;;;;;8.81;100.00;99732.69;4911610;29;20412;-84
2022/01/19 09:06:58;;;;;;;4.70;3.17;;;;;;;8.74;100.00;99734.34;4918410;29;20028;-84
2022/01/19 09:09:23;;;;;;;3.92;3.13;;;;;;;8.83;100.00;99735.97;4917031;29;20051;-84
2022/01/19 09:11:49;;;;;;;4.10;2.53;;;;;;;8.57;100.00;99740.44;4917755;29;20036;-84
2022/01/19 09:14:14;;;;;;;4.22;2.70;;;;;;;8.67;100.00;99739.44;4920988;29;20032;-83
2022/01/19 09:16:40;;;;;;;4.75;2.20;;;;;;;8.48;100.00;99743.19;4918663;29;20028;-82
2022/01/19 09:19:07;;;;;;;7.28;3.70;;;;;;;8.29;100.00;99745.13;4918058;29;20119;-82
2022/01/19 09:21:34;;;;;;;10.15;3.83;;;;;;;8.21;100.00;99768.63;4917012;29;20031;-81
2022/01/19 09:23:59;;;;;;;19.88;4.13;;;;;;;7.98;100.00;99749.16;4918516;29;20035;-82
2022/01/19 09:26:25;;;;;;;9.65;3.13;;;;;;;7.86;100.00;99780.00;4917262;29;20087;-83
2022/01/19 09:28:51;;;;;;;8.23;3.15;;;;;;;7.63;100.00;99771.91;4917097;29;20056;-83
2022/01/19 09:31:18;;;;;;;11.85;3.38;;;;;;;7.56;100.00;99774.31;4916125;29;20470;-82
2022/01/19 09:33:52;;;;;;;23.83;4.63;;;;;;;7.80;100.00;99754.47;4916077;29;20114;-83
2022/01/19 09:36:30;;;;;;;;;;;;;;;7.89;100.00;99749.31;4915699;29;20036;-84
2022/01/19 09:38:57;;;;;;;11.38;3.17;;;;;;;7.81;100.00;99753.50;4917295;29;19919;-82
2022/01/19 09:41:23;;;;;;;18.85;3.47;;;;;;;7.67;100.00;99767.19;4916417;29;20099;-83
2022/01/19 09:43:49;;;;;;;12.48;2.45;;;;;;;7.71;100.00;99763.28;4917624;29;20115;-84
2022/01/19 09:46:16;;;;;;;18.40;3.05;;;;;;;7.63;100.00;99760.63;4916281;29;20040;-83
2022/01/19 09:48:41;;;;;;;11.32;2.35;;;;;;;7.68;100.00;99779.28;4899927;29;20478;-82
2022/01/19 09:51:07;;;;;;;20.20;2.97;;;;;;;7.66;100.00;99778.59;4916278;29;20102;-82
2022/01/19 09:53:33;;;;;;;20.17;3.60;;;;;;;7.72;100.00;99764.94;4917141;29;20087;-83
2022/01/19 09:55:59;;;;;;;19.02;2.72;;;;;;;7.84;100.00;99770.69;4915570;29;20047;-83
2022/01/19 09:58:25;;;;;;;19.13;2.70;;;;;;;7.79;100.00;99771.16;4917419;29;20111;-83
2022/01/19 10:00:51;;;;;;;16.85;2.70;;;;;;;7.68;100.00;99768.84;4914989;29;20079;-83
2022/01/19 10:03:22;;;;;;;16.20;2.85;;;;;;;7.86;100.00;99766.94;4916221;29;20079;-83
2022/01/19 10:06:15;;;;;;;14.57;2.33;;;;;;;7.73;100.00;99740.44;4914495;29;20467;-82
2022/01/19 10:08:46;;;;;;;15.33;2.30;;;;;;;7.69;100.00;99736.50;4891516;29;20044;-83
2022/01/19 10:17:07;;;;;;;18.20;3.47;;;;;;;7.55;100.00;99717.00;4916957;29;20108;-84
2022/01/19 10:19:42;;;;;;;13.43;2.85;;;;;;;7.64;100.00;99710.84;4911291;29;20052;-84
2022/01/19 10:22:13;;;;;;;9.73;2.35;;;;;;;7.58;100.00;99722.72;4912823;29;20032;-83
2022/01/19 10:24:46;;;;;;;20.63;3.17;;;;;;;7.62;100.00;99707.56;4916734;29;20512;-83
2022/01/19 10:27:28;;;;;;;18.23;3.35;;;;;;;7.59;100.00;99718.34;4916394;29;20027;-83
2022/01/19 10:30:17;;;;;;;11.57;2.10;;;;;;;7.58;100.00;99714.09;4915377;29;20110;-84
2022/01/19 10:32:49;;;;;;;13.68;2.88;;;;;;;7.53;100.00;99724.19;4909675;29;20044;-83
2022/01/19 10:35:27;;;;;;;20.42;3.25;;;;;;;7.50;100.00;99730.56;4895146;29;20032;-83
2022/01/19 10:38:18;;;;;;;9.93;2.20;;;;;;;7.51;100.00;99758.31;4915379;29;20055;-83
2022/01/19 10:41:01;;;;;;;12.90;2.78;;;;;;;7.56;100.00;99745.59;4912410;29;20131;-82
2022/01/19 10:43:39;;;;;;;13.27;2.80;;;;;;;7.55;100.00;99730.91;4914780;29;20431;-84
2022/01/19 10:46:34;;;;;;;15.80;3.80;;;;;;;7.36;100.00;99754.66;4915963;29;20088;-84
2022/01/19 10:49:10;;;;;;;12.90;2.78;;;;;;;7.41;100.00;99770.66;4914206;29;20043;-83
2022/01/19 10:51:44;;;;;;;21.83;3.05;;;;;;;7.45;100.00;99763.34;4912975;29;20040;-83
2022/01/19 10:54:12;;;;;;;;;;;;;;;7.46;100.00;99770.19;4914797;29;20036;-83
2022/01/19 10:56:41;;;;;;;12.95;2.67;;;;;;;7.43;100.00;99730.34;4915940;29;20357;-82
2022/01/19 10:59:11;;;;;;;12.15;2.58;;;;;;;7.52;100.00;99739.06;4914099;29;20508;-83
2022/01/19 11:01:36;;;;;;;12.73;2.85;;;;;;;7.38;100.00;99744.84;4915805;29;20028;-83
2022/01/19 11:04:24;;;;;;;11.25;3.15;;;;;;;7.39;100.00;99749.94;4910965;29;20135;-83
2022/01/19 11:06:55;;;;;;;17.95;2.70;;;;;;;7.42;100.00;99761.84;4910144;29;20052;-82
2022/01/19 11:09:25;;;;;;;11.80;2.42;;;;;;;7.67;100.00;99730.63;4909365;29;20059;-83
2022/01/19 11:11:54;;;;;;;15.80;2.85;;;;;;;7.46;100.00;99759.75;4915494;29;20526;-83
2022/01/19 11:14:22;;;;;;;9.43;2.80;;;;;;;7.62;100.00;99766.84;4915378;29;20040;-82
2022/01/19 11:16:48;;;;;;;13.43;2.67;;;;;;;7.54;100.00;99773.66;4913474;29;20066;-83
2022/01/19 11:19:14;;;;;;;18.10;3.38;;;;;;;7.60;100.00;99779.22;4918657;29;20088;-83
2022/01/19 11:21:51;;;;;;;13.82;2.60;;;;;;;7.71;100.00;99784.19;4918912;29;20035;-82
2022/01/19 11:24:50;;;;;;;14.93;2.58;;;;;;;7.46;100.00;99765.78;4917097;29;20043;-84
2022/01/19 11:27:16;;;;;;;10.95;2.42;;;;;;;7.51;100.00;99765.31;4917291;29;20056;-82
2022/01/19 11:29:42;;;;;;;16.75;3.60;;;;;;;7.50;100.00;99781.97;4917741;29;20080;-84
2022/01/19 11:32:19;;;;;;;18.65;3.13;;;;;;;7.50;100.00;99764.50;4917298;29;20447;-83
2022/01/19 11:34:50;;;;;;;23.58;2.80;;;;;;;7.51;100.00;99804.50;4917007;29;20056;-82
2022/01/19 11:37:33;;;;;;;19.45;4.25;;;;;;;7.49;100.00;99781.16;4918654;29;20494;-84
2022/01/19 11:40:23;;;;;;;19.25;3.70;;;;;;;7.59;100.00;99794.09;4907533;29;20032;-83
2022/01/19 11:42:48;;;;;;;17.75;2.88;;;;;;;7.47;100.00;99798.78;4916741;29;20079;-82
2022/01/19 11:45:43;;;;;;;12.43;2.83;;;;;;;7.24;100.00;99825.41;4918708;29;21422;-83
2022/01/19 11:48:21;;;;;;;10.77;2.42;;;;;;;7.40;100.00;99814.25;4909133;29;20143;-82
2022/01/19 11:50:49;;;;;;;26.48;3.75;;;;;;;7.45;100.00;99811.16;4916031;29;20071;-83
2022/01/19 11:53:15;;;;;;;13.60;2.95;;;;;;;7.42;100.00;99806.25;4918462;29;20032;-83
2022/01/19 11:56:04;;;;;;;16.40;3.60;;;;;;;7.42;100.00;99819.31;4918209;29;20549;-82
2022/01/19 11:58:30;;;;;;;10.77;2.78;;;;;;;7.38;100.00;99797.94;4900686;29;20140;-82
2022/01/19 12:00:56;;;;;;;19.70;4.75;;;;;;;7.43;100.00;99829.63;4917844;29;20119;-83
2022/01/19 12:03:25;;;;;;;16.33;2.85;;;;;;;7.43;100.00;99813.94;4913112;29;20044;-82
2022/01/19 12:05:53;;;;;;;19.27;3.88;;;;;;;7.64;100.00;99777.94;4913307;29;20040;-82
2022/01/19 12:08:35;;;;;;;17.13;2.70;;;;;;;7.59;100.00;99775.81;4908180;29;20400;-82
2022/01/19 12:11:14;;;;;;;18.83;2.72;;;;;;;7.63;100.00;99782.38;4902851;29;20043;-83
2022/01/19 12:16:25;;;;;;;21.70;2.80;;;;;;;7.71;100.00;99831.22;4917938;29;20032;-83
2022/01/19 12:18:56;;;;;;;11.27;2.72;;;;;;;7.75;100.00;99821.25;4916853;29;20050;-83
2022/01/19 12:21:22;;;;;;;19.45;2.88;;;;;;;8.02;100.00;99820.22;4915236;29;20521;-83
2022/01/19 12:23:49;;;;;;;11.63;2.58;;;;;;;7.84;100.00;99838.63;4917847;29;20035;-83
2022/01/19 12:26:15;;;;;;;19.45;3.28;;;;;;;7.70;100.00;99829.59;4916673;29;20028;-83
2022/01/19 12:28:52;;;;;;;20.42;2.42;;;;;;;7.71;100.00;99852.13;4915896;29;20028;-82
2022/01/19 12:31:24;;;;;;;22.10;3.08;;;;;;;7.79;100.00;99839.09;4916141;29;20072;-82
2022/01/19 12:34:10;;;;;;;16.73;2.85;;;;;;;7.69;100.00;99864.53;4917221;29;20040;-84
2022/01/19 12:36:56;;;;;;;15.40;2.80;;;;;;;7.67;100.00;99876.94;4916147;29;20028;-82
2022/01/19 12:39:24;;;;;;;16.90;2.90;;;;;;;7.68;100.00;99879.38;4916092;29;20036;-81
2022/01/19 12:42:02;;;;;;;12.68;2.05;;;;;;;7.80;100.00;99861.66;4916947;29;20474;-84
2022/01/19 12:44:46;;;;;;;13.43;2.95;;;;;;;7.88;100.00;99852.22;4917667;29;20490;-82
2022/01/19 12:47:24;;;;;;;;;;;;;;;7.76;100.00;99886.47;4916612;29;20047;-82
2022/01/19 12:49:50;;;;;;;12.20;2.90;;;;;;;7.75;100.00;99850.00;4915952;29;19954;-82
2022/01/19 12:52:17;;;;;;;16.67;2.88;;;;;;;7.80;100.00;99851.19;4917041;29;20036;-81
2022/01/19 12:54:43;;;;;;;10.00;2.30;;;;;;;7.77;100.00;99888.09;4915486;29;20086;-82
2022/01/19 12:57:14;;;;;;;11.90;2.35;;;;;;;7.73;100.00;99886.78;4916961;29;20422;-82
2022/01/19 12:59:46;;;;;;;15.93;2.42;;;;;;;7.79;100.00;99888.75;4917082;29;20409;-84
2022/01/19 13:02:14;;;;;;;15.13;3.92;;;;;;;7.93;100.00;99886.53;4912130;29;20506;-83
2022/01/19 13:04:42;;;;;;;16.63;2.55;;;;;;;7.98;100.00;99884.28;4917193;29;20044;-81